createdAt,value
2024-04-14T00:01:39.602Z,94.22
2024-04-14T00:04:06.615Z,91.33
2024-04-14T00:06:33.599Z,89.08
2024-04-14T00:09:00.519Z,88.99
2024-04-14T00:11:27.380Z,91.35
2024-04-14T00:13:54.150Z,91.67
2024-04-14T00:16:20.994Z,90.57
2024-04-14T00:18:48.149Z,89.36
2024-04-14T00:21:15.631Z,88.33
2024-04-14T00:23:42.545Z,90.41
2024-04-14T00:26:09.894Z,88.91
2024-04-14T00:28:37.087Z,87.45
2024-04-14T00:31:03.976Z,86.00
2024-04-14T00:33:32.731Z,87.91
2024-04-14T00:35:59.658Z,89.58
2024-04-14T00:38:26.430Z,90.09
2024-04-14T00:40:53.341Z,90.35
2024-04-14T00:43:20.235Z,93.99
2024-04-14T00:45:47.600Z,94.46
2024-04-14T00:48:14.834Z,95.35
2024-04-14T00:50:41.733Z,94.58
2024-04-14T00:53:09.387Z,93.25
2024-04-14T00:55:36.520Z,91.38
2024-04-14T00:58:04.333Z,90.51
2024-04-14T01:00:31.273Z,91.37
2024-04-14T01:02:58.364Z,92.20
2024-04-14T01:05:25.419Z,95.64
2024-04-14T01:07:52.171Z,93.61
2024-04-14T01:10:19.015Z,93.27
2024-04-14T01:12:45.988Z,92.32
2024-04-14T01:15:13.014Z,91.51
2024-04-14T01:17:39.906Z,92.05
2024-04-14T01:20:07.339Z,91.78
2024-04-14T01:22:34.405Z,91.36
2024-04-14T01:25:08.111Z,93.96
2024-04-14T01:27:35.436Z,94.04
2024-04-14T01:30:06.932Z,93.75
2024-04-14T01:32:40.498Z,93.78
2024-04-14T01:35:10.281Z,93.29
2024-04-14T01:37:37.135Z,94.59
2024-04-14T01:40:04.226Z,94.69
2024-04-14T01:42:31.449Z,93.45
2024-04-14T01:44:58.320Z,95.60
2024-04-14T01:47:25.190Z,98.92
2024-04-14T01:49:51.983Z,100.00
2024-04-14T01:52:18.844Z,100.00
2024-04-14T01:54:45.674Z,100.00
2024-04-14T01:57:12.491Z,100.00
2024-04-14T01:59:39.298Z,100.00
2024-04-14T02:02:06.074Z,100.00
2024-04-14T02:04:34.140Z,100.00
2024-04-14T02:07:01.141Z,100.00
2024-04-14T02:09:28.173Z,100.00
2024-04-14T02:11:54.973Z,100.00
2024-04-14T02:14:21.732Z,100.00
2024-04-14T02:16:48.531Z,100.00
2024-04-14T02:19:15.393Z,100.00
2024-04-14T02:21:43.780Z,100.00
2024-04-14T02:24:11.379Z,100.00
2024-04-14T02:26:38.314Z,100.00
2024-04-14T02:29:05.181Z,100.00
2024-04-14T02:31:32.061Z,100.00
2024-04-14T02:33:58.874Z,100.00
2024-04-14T02:36:28.786Z,100.00
2024-04-14T02:38:56.955Z,100.00
2024-04-14T02:41:23.849Z,100.00
2024-04-14T02:43:50.664Z,100.00
2024-04-14T02:46:17.642Z,100.00
2024-04-14T02:48:49.209Z,100.00
2024-04-14T02:51:16.123Z,100.00
2024-04-14T02:53:42.919Z,100.00
2024-04-14T02:56:09.662Z,100.00
2024-04-14T02:58:36.432Z,100.00
2024-04-14T03:01:03.446Z,100.00
2024-04-14T03:03:30.522Z,100.00
2024-04-14T03:06:04.724Z,100.00
2024-04-14T03:08:31.464Z,100.00
2024-04-14T03:10:58.923Z,100.00
2024-04-14T03:13:25.706Z,100.00
2024-04-14T03:15:53.528Z,100.00
2024-04-14T03:18:20.409Z,100.00
2024-04-14T03:21:00.807Z,100.00
2024-04-14T03:23:27.843Z,100.00
2024-04-14T03:25:54.798Z,100.00
2024-04-14T03:28:26.758Z,100.00
2024-04-14T03:30:54.133Z,100.00
2024-04-14T03:33:20.955Z,100.00
2024-04-14T03:35:47.733Z,100.00
2024-04-14T03:38:14.467Z,100.00
2024-04-14T03:40:41.240Z,100.00
2024-04-14T03:43:08.078Z,100.00
2024-04-14T03:45:34.904Z,100.00
2024-04-14T03:48:01.752Z,100.00
2024-04-14T03:50:28.527Z,100.00
2024-04-14T03:52:55.262Z,100.00
2024-04-14T03:55:22.024Z,100.00
2024-04-14T03:57:48.883Z,100.00
2024-04-14T04:00:15.735Z,100.00
2024-04-14T04:02:42.524Z,100.00
2024-04-14T04:05:12.065Z,100.00
2024-04-14T04:07:39.007Z,100.00
2024-04-14T04:10:05.934Z,100.00
2024-04-14T04:12:32.753Z,100.00
2024-04-14T04:14:59.530Z,100.00
2024-04-14T04:17:26.293Z,100.00
2024-04-14T04:19:53.395Z,100.00
2024-04-14T04:22:20.152Z,100.00
2024-04-14T04:24:46.968Z,100.00
2024-04-14T04:27:13.763Z,100.00
2024-04-14T04:29:40.524Z,100.00
2024-04-14T04:32:07.459Z,100.00
2024-04-14T04:34:34.205Z,100.00
2024-04-14T04:37:01.236Z,100.00
2024-04-14T04:39:28.078Z,100.00
2024-04-14T04:41:54.903Z,100.00
2024-04-14T04:44:21.672Z,100.00
2024-04-14T04:46:48.467Z,100.00
2024-04-14T04:49:15.277Z,100.00
2024-04-14T04:51:42.082Z,100.00
2024-04-14T04:54:08.859Z,100.00
2024-04-14T04:56:35.613Z,100.00
2024-04-14T04:59:02.856Z,100.00
2024-04-14T05:01:29.886Z,100.00
2024-04-14T05:03:56.763Z,100.00
2024-04-14T05:06:23.713Z,100.00
2024-04-14T05:08:50.487Z,100.00
2024-04-14T05:11:17.498Z,100.00
2024-04-14T05:13:44.267Z,100.00
2024-04-14T05:16:11.119Z,100.00
2024-04-14T05:18:38.066Z,100.00
2024-04-14T05:21:05.261Z,100.00
2024-04-14T05:23:32.183Z,100.00
2024-04-14T05:26:00.740Z,100.00
2024-04-14T05:28:27.513Z,100.00
2024-04-14T05:30:54.295Z,100.00
2024-04-14T05:33:21.060Z,100.00
2024-04-14T05:35:57.333Z,100.00
2024-04-14T05:38:24.211Z,100.00
2024-04-14T05:40:51.372Z,100.00
2024-04-14T05:43:18.130Z,100.00
2024-04-14T05:45:45.459Z,100.00
2024-04-14T05:48:12.355Z,100.00
2024-04-14T05:50:39.154Z,100.00
2024-04-14T05:53:06.134Z,100.00
2024-04-14T05:55:32.906Z,100.00
2024-04-14T05:58:00.322Z,100.00
2024-04-14T06:00:27.246Z,100.00
2024-04-14T06:02:54.156Z,100.00
2024-04-14T06:05:20.947Z,100.00
2024-04-14T06:07:47.811Z,100.00
2024-04-14T06:12:41.446Z,100.00
2024-04-14T06:15:08.370Z,100.00
2024-04-14T06:17:35.159Z,100.00
2024-04-14T06:20:02.043Z,100.00
2024-04-14T06:22:32.099Z,100.00
2024-04-14T06:24:59.048Z,100.00
2024-04-14T06:27:26.086Z,99.87
2024-04-14T06:29:52.905Z,100.00
2024-04-14T06:32:19.745Z,99.84
2024-04-14T06:34:46.570Z,100.00
2024-04-14T06:37:13.910Z,98.24
2024-04-14T06:39:40.794Z,97.73
2024-04-14T06:42:09.249Z,95.17
2024-04-14T06:44:36.086Z,96.76
2024-04-14T06:47:03.004Z,94.70
2024-04-14T06:49:30.016Z,94.65
2024-04-14T06:51:58.383Z,93.16
2024-04-14T06:54:25.356Z,92.45
2024-04-14T06:56:52.244Z,90.50
2024-04-14T06:59:19.072Z,90.36
2024-04-14T07:01:45.984Z,88.14
2024-04-14T07:04:13.333Z,91.45
2024-04-14T07:06:40.568Z,85.66
2024-04-14T07:09:07.383Z,86.04
2024-04-14T07:11:34.298Z,84.05
2024-04-14T07:14:01.086Z,83.13
2024-04-14T07:16:27.898Z,83.81
2024-04-14T07:18:54.842Z,81.20
2024-04-14T07:21:21.664Z,78.43
2024-04-14T07:23:48.482Z,76.24
2024-04-14T07:26:15.291Z,80.07
2024-04-14T07:28:42.162Z,78.13
2024-04-14T07:31:08.997Z,73.51
2024-04-14T07:33:36.806Z,72.97
2024-04-14T07:36:03.967Z,73.64
2024-04-14T07:38:30.811Z,64.63
2024-04-14T07:40:57.697Z,64.42
2024-04-14T07:43:24.591Z,61.48
2024-04-14T07:45:51.333Z,61.16
2024-04-14T07:48:18.376Z,59.99
2024-04-14T07:50:45.867Z,64.55
2024-04-14T07:53:13.060Z,66.94
2024-04-14T07:55:39.933Z,66.70
2024-04-14T07:58:06.803Z,60.32
2024-04-14T08:00:33.707Z,56.71
2024-04-14T08:03:00.577Z,55.11
2024-04-14T08:05:27.541Z,57.63
2024-04-14T08:07:55.657Z,57.31
2024-04-14T08:10:22.529Z,56.83
2024-04-14T08:12:49.400Z,53.85
2024-04-14T08:15:16.258Z,50.04
2024-04-14T08:17:43.975Z,54.80
2024-04-14T08:20:12.608Z,54.32
2024-04-14T08:22:39.616Z,52.55
2024-04-14T08:25:06.786Z,55.02
2024-04-14T08:27:33.722Z,49.99
2024-04-14T08:30:00.546Z,47.59
2024-04-14T08:32:27.453Z,46.54
2024-04-14T08:34:54.349Z,45.35
2024-04-14T08:37:21.803Z,41.72
2024-04-14T08:39:48.763Z,41.22
2024-04-14T08:42:15.684Z,41.47
2024-04-14T08:44:42.572Z,42.98
2024-04-14T08:47:10.415Z,43.17
2024-04-14T08:49:41.461Z,42.80
2024-04-14T08:52:08.266Z,41.65
2024-04-14T08:54:35.200Z,46.98
2024-04-14T08:57:02.927Z,44.36
2024-04-14T08:59:30.835Z,45.43
2024-04-14T09:02:02.693Z,45.06
2024-04-14T09:04:29.851Z,43.70
2024-04-14T09:06:56.750Z,41.74
2024-04-14T09:09:23.563Z,40.84
2024-04-14T09:11:54.031Z,42.44
2024-04-14T09:14:20.808Z,40.86
2024-04-14T09:16:48.114Z,39.93
2024-04-14T09:19:15.015Z,40.30
2024-04-14T09:21:42.216Z,40.11
2024-04-14T09:24:08.981Z,39.95
2024-04-14T09:26:35.898Z,40.96
2024-04-14T09:29:05.931Z,37.31
2024-04-14T09:31:36.364Z,40.29
2024-04-14T09:34:06.255Z,42.32
2024-04-14T09:36:33.333Z,38.57
2024-04-14T09:39:00.306Z,38.00
2024-04-14T09:41:27.103Z,37.61
2024-04-14T09:43:54.040Z,37.54
2024-04-14T09:46:20.913Z,37.55
2024-04-14T09:48:47.959Z,37.53
2024-04-14T09:51:15.467Z,36.26
2024-04-14T09:53:42.834Z,35.50
2024-04-14T09:56:09.760Z,36.99
2024-04-14T09:58:36.572Z,40.12
2024-04-14T10:01:12.635Z,37.97
2024-04-14T10:03:40.920Z,33.70
2024-04-14T10:06:07.847Z,37.11
2024-04-14T10:08:34.939Z,33.27
2024-04-14T10:11:05.811Z,34.71
2024-04-14T10:13:51.848Z,35.25
2024-04-14T10:16:19.837Z,31.77
2024-04-14T10:18:48.275Z,32.83
2024-04-14T10:21:19.203Z,31.48
2024-04-14T10:23:56.587Z,32.18
2024-04-14T10:26:23.556Z,31.83
2024-04-14T10:28:54.076Z,31.73
2024-04-14T10:31:30.425Z,30.32
2024-04-14T10:34:09.882Z,31.16
2024-04-14T10:36:37.923Z,32.68
2024-04-14T10:39:08.025Z,31.71
2024-04-14T10:41:36.446Z,30.28
2024-04-14T10:44:03.532Z,31.56
2024-04-14T10:46:30.397Z,32.64
2024-04-14T10:48:57.367Z,33.91
2024-04-14T10:51:24.295Z,31.54
2024-04-14T10:53:54.218Z,30.71
2024-04-14T10:56:21.408Z,30.62
2024-04-14T10:58:48.154Z,30.08
2024-04-14T11:01:15.364Z,31.18
2024-04-14T11:03:42.430Z,31.17
2024-04-14T11:06:09.345Z,31.01
2024-04-14T11:08:36.157Z,32.28
2024-04-14T11:11:03.066Z,31.17
2024-04-14T11:13:30.070Z,31.74
2024-04-14T11:16:00.725Z,30.71
2024-04-14T11:18:30.886Z,29.51
2024-04-14T11:20:57.766Z,31.92
2024-04-14T11:23:24.780Z,29.82
2024-04-14T11:25:51.543Z,27.84
2024-04-14T11:28:18.629Z,28.41
2024-04-14T11:30:45.584Z,27.46
2024-04-14T11:33:12.569Z,29.28
2024-04-14T11:35:39.972Z,32.32
2024-04-14T11:38:07.067Z,28.65
2024-04-14T11:40:34.076Z,28.32
2024-04-14T11:43:00.912Z,26.43
2024-04-14T11:45:27.807Z,26.91
2024-04-14T11:47:54.607Z,26.58
2024-04-14T11:50:21.466Z,26.86
2024-04-14T11:52:49.201Z,28.97
2024-04-14T11:55:15.983Z,26.63
2024-04-14T11:57:42.896Z,28.13
2024-04-14T12:00:10.035Z,29.17
2024-04-14T12:02:36.886Z,30.62
2024-04-14T12:05:03.989Z,28.57
2024-04-14T12:07:30.823Z,29.90
2024-04-14T12:09:57.639Z,30.90
2024-04-14T12:12:24.477Z,29.09
2024-04-14T12:14:51.321Z,26.91
2024-04-14T12:17:18.106Z,28.97
2024-04-14T12:19:45.175Z,30.46
2024-04-14T12:22:12.084Z,30.98
2024-04-14T12:24:38.942Z,28.05
2024-04-14T12:27:05.917Z,32.15
2024-04-14T12:29:32.976Z,33.67
2024-04-14T12:31:59.790Z,32.12
2024-04-14T12:34:26.605Z,32.96
2024-04-14T12:36:53.457Z,35.62
2024-04-14T12:39:27.307Z,32.86
2024-04-14T12:41:57.409Z,30.85
2024-04-14T12:44:24.223Z,31.28
2024-04-14T12:46:51.115Z,28.69
2024-04-14T12:49:27.410Z,26.51
2024-04-14T12:51:55.161Z,26.36
2024-04-14T12:54:22.023Z,28.06
2024-04-14T12:56:48.835Z,31.96
2024-04-14T12:59:15.765Z,29.41
2024-04-14T13:01:42.646Z,31.73
2024-04-14T13:04:09.553Z,29.76
2024-04-14T13:06:36.760Z,30.24
2024-04-14T13:09:03.534Z,30.43
2024-04-14T13:11:30.438Z,30.81
2024-04-14T13:13:57.201Z,33.58
2024-04-14T13:16:24.206Z,34.13
2024-04-14T13:18:51.227Z,35.29
2024-04-14T13:21:18.774Z,36.14
2024-04-14T13:23:49.363Z,35.89
2024-04-14T13:26:16.393Z,35.06
2024-04-14T13:28:43.461Z,32.67
2024-04-14T13:31:10.464Z,30.74
2024-04-14T13:33:37.972Z,33.91
2024-04-14T13:36:05.201Z,31.50
2024-04-14T13:38:32.069Z,31.32
2024-04-14T13:41:02.462Z,32.16
2024-04-14T13:43:29.257Z,33.10
2024-04-14T13:45:56.106Z,33.12
2024-04-14T13:48:22.950Z,32.65
2024-04-14T13:50:49.908Z,31.65
2024-04-14T13:53:16.826Z,33.78
2024-04-14T13:55:43.750Z,31.89
2024-04-14T13:58:10.706Z,30.45
2024-04-14T14:00:38.418Z,32.26
2024-04-14T14:03:05.386Z,33.12
2024-04-14T14:05:32.289Z,33.12
2024-04-14T14:07:59.047Z,32.12
2024-04-14T14:10:25.923Z,31.72
2024-04-14T14:12:52.810Z,32.49
2024-04-14T14:15:20.541Z,32.04
2024-04-14T14:17:47.380Z,32.45
2024-04-14T14:20:14.297Z,31.44
2024-04-14T14:22:41.142Z,30.74
2024-04-14T14:25:08.124Z,30.57
2024-04-14T14:27:35.042Z,27.62
2024-04-14T14:30:01.818Z,27.42
2024-04-14T14:32:31.596Z,27.38
2024-04-14T14:35:17.073Z,27.31
2024-04-14T14:37:43.807Z,28.11
2024-04-14T14:40:10.814Z,27.92
2024-04-14T14:42:37.698Z,27.45
2024-04-14T14:45:04.869Z,26.72
2024-04-14T14:47:32.039Z,26.15
2024-04-14T14:49:58.907Z,26.32
2024-04-14T14:52:25.767Z,25.91
2024-04-14T14:54:52.598Z,26.66
2024-04-14T14:57:19.412Z,27.16
2024-04-14T14:59:46.168Z,25.95
2024-04-14T15:02:12.981Z,27.21
2024-04-14T15:04:40.011Z,26.56
2024-04-14T15:07:06.935Z,27.26
2024-04-14T15:09:33.872Z,27.11
2024-04-14T15:12:00.699Z,26.59
2024-04-14T15:14:27.504Z,26.69
2024-04-14T15:16:54.379Z,26.22
2024-04-14T15:19:21.244Z,26.74
2024-04-14T15:21:48.138Z,26.99
2024-04-14T15:24:14.986Z,26.47
2024-04-14T15:26:41.812Z,26.52
2024-04-14T15:29:08.714Z,26.98
2024-04-14T15:31:35.644Z,26.92
2024-04-14T15:34:02.525Z,28.00
2024-04-14T15:36:29.360Z,27.16
2024-04-14T15:38:56.110Z,26.25
2024-04-14T15:41:22.978Z,26.73
2024-04-14T15:43:49.967Z,27.90
2024-04-14T15:46:16.932Z,27.32
2024-04-14T15:48:43.817Z,27.68
2024-04-14T15:51:18.363Z,26.85
2024-04-14T15:53:47.707Z,27.84
2024-04-14T15:56:14.565Z,27.23
2024-04-14T15:58:41.426Z,26.88
2024-04-14T16:01:08.374Z,26.69
2024-04-14T16:03:35.423Z,27.33
2024-04-14T16:06:02.239Z,28.08
2024-04-14T16:08:29.044Z,27.68
2024-04-14T16:11:06.149Z,28.17
2024-04-14T16:13:35.303Z,28.21
2024-04-14T16:16:06.966Z,27.58
2024-04-14T16:18:34.534Z,28.52
2024-04-14T16:21:01.568Z,29.14
2024-04-14T16:23:39.367Z,29.38
2024-04-14T16:26:06.235Z,29.54
2024-04-14T16:28:33.454Z,29.29
2024-04-14T16:31:00.765Z,30.46
2024-04-14T16:33:27.663Z,29.96
2024-04-14T16:35:54.550Z,31.22
2024-04-14T16:38:21.292Z,32.26
2024-04-14T16:40:48.949Z,32.50
2024-04-14T16:43:15.811Z,32.65
2024-04-14T16:45:42.746Z,34.85
2024-04-14T16:48:09.623Z,35.33
2024-04-14T16:50:36.757Z,36.68
2024-04-14T16:53:03.666Z,37.53
2024-04-14T16:55:31.120Z,38.44
2024-04-14T16:57:57.990Z,39.10
2024-04-14T17:00:24.822Z,39.23
2024-04-14T17:02:51.727Z,39.29
2024-04-14T17:05:18.571Z,39.82
2024-04-14T17:07:45.462Z,41.58
2024-04-14T17:10:12.348Z,40.19
2024-04-14T17:12:40.390Z,40.71
2024-04-14T17:15:08.289Z,40.74
2024-04-14T17:17:35.615Z,40.80
2024-04-14T17:20:03.228Z,41.79
2024-04-14T17:22:30.585Z,40.80
2024-04-14T17:24:57.461Z,42.23
2024-04-14T17:27:24.320Z,41.74
2024-04-14T17:29:51.136Z,42.43
2024-04-14T17:32:18.898Z,44.33
2024-04-14T17:34:46.033Z,44.21
2024-04-14T17:37:12.898Z,44.33
2024-04-14T17:39:39.744Z,46.62
2024-04-14T17:42:06.588Z,48.66
2024-04-14T17:44:33.547Z,48.20
2024-04-14T17:47:00.381Z,48.76
2024-04-14T17:49:27.282Z,48.83
2024-04-14T17:51:54.084Z,50.04
2024-04-14T17:54:20.983Z,53.99
2024-04-14T17:56:52.306Z,54.32
2024-04-14T17:59:19.295Z,53.69
2024-04-14T18:01:47.051Z,53.26
2024-04-14T18:04:13.979Z,52.40
2024-04-14T18:06:40.929Z,53.03
2024-04-14T18:09:07.916Z,53.02
2024-04-14T18:11:34.739Z,51.71
2024-04-14T18:14:01.746Z,51.81
2024-04-14T18:16:28.600Z,52.20
2024-04-14T18:18:55.472Z,52.31
2024-04-14T18:21:22.353Z,51.56
2024-04-14T18:23:49.211Z,52.52
2024-04-14T18:26:16.035Z,52.54
2024-04-14T18:28:44.790Z,53.69
2024-04-14T18:31:11.652Z,51.67
2024-04-14T18:33:38.570Z,52.44
2024-04-14T18:36:14.403Z,51.74
2024-04-14T18:38:45.526Z,52.17
2024-04-14T18:41:12.343Z,51.84
2024-04-14T18:43:39.684Z,52.63
2024-04-14T18:46:06.720Z,53.41
2024-04-14T18:48:40.377Z,56.01
2024-04-14T18:51:07.541Z,55.66
2024-04-14T18:53:34.390Z,56.58
2024-04-14T18:56:02.278Z,56.96
2024-04-14T18:58:32.617Z,55.45
2024-04-14T19:01:00.186Z,55.89
2024-04-14T19:03:27.082Z,55.89
2024-04-14T19:05:53.882Z,55.68
2024-04-14T19:08:24.136Z,56.42
2024-04-14T19:10:50.976Z,57.18
2024-04-14T19:13:17.824Z,57.66
2024-04-14T19:15:48.901Z,57.33
2024-04-14T19:18:16.281Z,57.03
2024-04-14T19:20:43.172Z,57.63
2024-04-14T19:23:10.000Z,57.33
2024-04-14T19:25:36.895Z,57.56
2024-04-14T19:28:04.368Z,59.04
2024-04-14T19:30:31.260Z,58.70
2024-04-14T19:32:58.102Z,60.10
2024-04-14T19:35:25.862Z,61.82
2024-04-14T19:37:55.014Z,61.80
2024-04-14T19:40:21.913Z,62.06
2024-04-14T19:42:48.722Z,61.98
2024-04-14T19:45:15.604Z,63.68
2024-04-14T19:47:43.161Z,64.19
2024-04-14T19:50:09.970Z,64.56
2024-04-14T19:52:36.837Z,64.37
2024-04-14T19:55:06.115Z,64.98
2024-04-14T19:57:33.069Z,64.29
2024-04-14T19:59:59.831Z,62.91
2024-04-14T20:02:26.695Z,63.83
2024-04-14T20:04:53.584Z,62.65
2024-04-14T20:07:20.420Z,63.05
2024-04-14T20:09:47.248Z,62.14
2024-04-14T20:12:14.055Z,61.60
2024-04-14T20:14:40.919Z,62.35
2024-04-14T20:17:07.754Z,62.16
2024-04-14T20:19:34.677Z,61.54
2024-04-14T20:22:01.508Z,61.38
2024-04-14T20:24:28.679Z,62.17
2024-04-14T20:26:55.551Z,62.33
2024-04-14T20:29:22.417Z,63.28
2024-04-14T20:31:49.167Z,64.49
2024-04-14T20:34:16.008Z,63.96
2024-04-14T20:36:42.856Z,65.36
2024-04-14T20:39:10.850Z,64.43
2024-04-14T20:41:37.736Z,63.04
2024-04-14T20:44:04.538Z,64.15
2024-04-14T20:46:31.379Z,65.16
2024-04-14T20:48:58.316Z,64.54
2024-04-14T20:51:25.183Z,65.03
2024-04-14T20:53:51.954Z,67.04
2024-04-14T20:56:18.831Z,68.53
2024-04-14T20:58:49.502Z,67.72
2024-04-14T21:01:16.450Z,67.69
2024-04-14T21:03:43.365Z,67.75
2024-04-14T21:06:10.570Z,68.38
2024-04-14T21:08:37.399Z,69.01
2024-04-14T21:11:04.864Z,68.36
2024-04-14T21:13:31.679Z,69.07
2024-04-14T21:15:58.501Z,70.28
2024-04-14T21:18:25.476Z,71.04
2024-04-14T21:20:55.753Z,70.95
2024-04-14T21:23:22.755Z,70.10
2024-04-14T21:25:49.561Z,73.93
2024-04-14T21:28:16.454Z,75.78
2024-04-14T21:30:51.621Z,75.13
2024-04-14T21:33:18.551Z,74.02
2024-04-14T21:35:45.418Z,74.31
2024-04-14T21:38:14.263Z,74.33
2024-04-14T21:40:48.124Z,75.26
2024-04-14T21:43:15.060Z,74.64
2024-04-14T21:45:41.994Z,73.88
2024-04-14T21:48:09.183Z,73.04
2024-04-14T21:50:36.008Z,73.89
2024-04-14T21:53:02.900Z,73.48
2024-04-14T21:55:29.690Z,73.45
2024-04-14T21:57:56.462Z,73.01
2024-04-14T22:00:23.268Z,72.92
2024-04-14T22:02:50.120Z,73.09
2024-04-14T22:05:17.105Z,74.64
2024-04-14T22:07:43.984Z,74.57
2024-04-14T22:10:10.890Z,76.63
2024-04-14T22:12:37.815Z,78.96
2024-04-14T22:15:05.041Z,79.05
2024-04-14T22:17:32.014Z,80.10
2024-04-14T22:19:58.917Z,80.50
2024-04-14T22:22:25.700Z,79.26
2024-04-14T22:24:52.793Z,78.30
2024-04-14T22:27:19.635Z,78.18
2024-04-14T22:29:46.408Z,75.47
2024-04-14T22:32:13.481Z,78.17
2024-04-14T22:34:41.615Z,79.77
2024-04-14T22:37:08.549Z,80.59
2024-04-14T22:39:35.406Z,79.73
2024-04-14T22:42:02.137Z,79.29
2024-04-14T22:44:28.989Z,78.91
2024-04-14T22:46:55.922Z,79.58
2024-04-14T22:49:22.793Z,80.74
2024-04-14T22:51:49.626Z,80.56
2024-04-14T22:54:16.830Z,77.83
2024-04-14T22:56:43.698Z,75.81
2024-04-14T22:59:10.529Z,74.40
2024-04-14T23:01:37.462Z,73.38
2024-04-14T23:04:04.424Z,74.96
2024-04-14T23:06:31.344Z,78.24
2024-04-14T23:08:58.135Z,78.19
2024-04-14T23:11:25.003Z,77.05
2024-04-14T23:13:51.852Z,77.51
2024-04-14T23:16:18.698Z,76.33
2024-04-14T23:18:45.550Z,76.96
2024-04-14T23:21:12.433Z,77.84
2024-04-14T23:23:39.248Z,77.03
2024-04-14T23:26:06.025Z,75.98
2024-04-14T23:28:32.842Z,75.83
2024-04-14T23:30:59.723Z,76.54
2024-04-14T23:33:26.655Z,76.63
2024-04-14T23:35:53.410Z,77.15
2024-04-14T23:38:20.229Z,76.50
2024-04-14T23:40:47.157Z,78.16
2024-04-14T23:43:14.183Z,77.24
2024-04-14T23:45:41.894Z,75.79
2024-04-14T23:48:08.759Z,75.45
2024-04-14T23:50:35.606Z,75.22
2024-04-14T23:53:02.377Z,75.56
2024-04-14T23:55:29.255Z,75.25
2024-04-14T23:57:56.039Z,75.29
